sensor_id;sensor_type;location;lat;lon;timestamp;P1;durP1;ratioP1;P2;durP2;ratioP2
80653;SDS011;70020;45.524;10.240;2023-12-29T00:01:54;47.72;;;33.65;;
80653;SDS011;70020;45.524;10.240;2023-12-29T00:04:20;48.13;;;35.17;;
80653;SDS011;70020;45.524;10.240;2023-12-29T00:06:46;62.22;;;36.60;;
80653;SDS011;70020;45.524;10.240;2023-12-29T00:11:40;50.08;;;35.33;;
80653;SDS011;70020;45.524;10.240;2023-12-29T00:14:05;57.60;;;36.60;;
80653;SDS011;70020;45.524;10.240;2023-12-29T00:16:31;56.17;;;38.87;;
80653;SDS011;70020;45.524;10.240;2023-12-29T00:18:57;54.47;;;37.70;;
80653;SDS011;70020;45.524;10.240;2023-12-29T00:21:24;55.92;;;37.22;;
80653;SDS011;70020;45.524;10.240;2023-12-29T00:23:50;62.65;;;37.80;;
80653;SDS011;70020;45.524;10.240;2023-12-29T00:26:17;58.13;;;37.63;;
80653;SDS011;70020;45.524;10.240;2023-12-29T00:28:45;59.42;;;37.88;;
80653;SDS011;70020;45.524;10.240;2023-12-29T00:31:14;60.30;;;37.80;;
80653;SDS011;70020;45.524;10.240;2023-12-29T00:34:00;53.97;;;36.65;;
80653;SDS011;70020;45.524;10.240;2023-12-29T00:36:27;56.20;;;38.10;;
80653;SDS011;70020;45.524;10.240;2023-12-29T00:38:53;58.40;;;37.08;;
80653;SDS011;70020;45.524;10.240;2023-12-29T00:41:19;53.70;;;37.35;;
80653;SDS011;70020;45.524;10.240;2023-12-29T00:43:45;56.10;;;37.28;;
80653;SDS011;70020;45.524;10.240;2023-12-29T00:46:13;52.90;;;36.55;;
80653;SDS011;70020;45.524;10.240;2023-12-29T00:48:40;54.08;;;36.17;;
80653;SDS011;70020;45.524;10.240;2023-12-29T00:51:07;57.47;;;36.47;;
80653;SDS011;70020;45.524;10.240;2023-12-29T00:53:34;51.83;;;36.13;;
80653;SDS011;70020;45.524;10.240;2023-12-29T00:56:00;50.55;;;35.70;;
80653;SDS011;70020;45.524;10.240;2023-12-29T00:58:26;58.10;;;37.58;;
80653;SDS011;70020;45.524;10.240;2023-12-29T01:00:52;55.88;;;37.05;;
80653;SDS011;70020;45.524;10.240;2023-12-29T01:03:18;52.83;;;37.13;;
80653;SDS011;70020;45.524;10.240;2023-12-29T01:05:45;57.53;;;35.97;;
80653;SDS011;70020;45.524;10.240;2023-12-29T01:08:12;47.90;;;34.47;;
80653;SDS011;70020;45.524;10.240;2023-12-29T01:10:37;54.50;;;35.80;;
80653;SDS011;70020;45.524;10.240;2023-12-29T01:13:04;53.00;;;37.80;;
80653;SDS011;70020;45.524;10.240;2023-12-29T01:15:33;55.22;;;37.08;;
80653;SDS011;70020;45.524;10.240;2023-12-29T01:17:59;52.93;;;37.93;;
80653;SDS011;70020;45.524;10.240;2023-12-29T01:20:25;57.00;;;37.90;;
80653;SDS011;70020;45.524;10.240;2023-12-29T01:22:52;51.25;;;36.83;;
80653;SDS011;70020;45.524;10.240;2023-12-29T01:25:17;49.53;;;37.23;;
80653;SDS011;70020;45.524;10.240;2023-12-29T01:27:43;51.90;;;37.00;;
80653;SDS011;70020;45.524;10.240;2023-12-29T01:30:11;52.05;;;35.92;;
80653;SDS011;70020;45.524;10.240;2023-12-29T01:32:37;52.50;;;37.67;;
80653;SDS011;70020;45.524;10.240;2023-12-29T01:35:03;51.72;;;38.22;;
80653;SDS011;70020;45.524;10.240;2023-12-29T01:37:29;58.22;;;38.10;;
80653;SDS011;70020;45.524;10.240;2023-12-29T01:39:56;53.13;;;35.25;;
80653;SDS011;70020;45.524;10.240;2023-12-29T01:42:22;47.92;;;35.13;;
80653;SDS011;70020;45.524;10.240;2023-12-29T01:44:48;49.13;;;36.08;;
80653;SDS011;70020;45.524;10.240;2023-12-29T01:47:19;56.05;;;36.13;;
80653;SDS011;70020;45.524;10.240;2023-12-29T01:49:46;51.65;;;36.90;;
80653;SDS011;70020;45.524;10.240;2023-12-29T01:52:13;55.17;;;37.22;;
80653;SDS011;70020;45.524;10.240;2023-12-29T01:54:41;52.95;;;38.53;;
80653;SDS011;70020;45.524;10.240;2023-12-29T01:57:08;55.78;;;38.22;;
80653;SDS011;70020;45.524;10.240;2023-12-29T01:59:34;53.55;;;37.20;;
80653;SDS011;70020;45.524;10.240;2023-12-29T02:02:00;48.92;;;36.63;;
80653;SDS011;70020;45.524;10.240;2023-12-29T02:04:27;50.58;;;38.17;;
80653;SDS011;70020;45.524;10.240;2023-12-29T02:06:54;53.42;;;37.38;;
80653;SDS011;70020;45.524;10.240;2023-12-29T02:09:20;54.47;;;38.55;;
80653;SDS011;70020;45.524;10.240;2023-12-29T02:11:46;52.22;;;38.03;;
80653;SDS011;70020;45.524;10.240;2023-12-29T02:14:14;50.95;;;38.05;;
80653;SDS011;70020;45.524;10.240;2023-12-29T02:16:52;55.92;;;37.17;;
80653;SDS011;70020;45.524;10.240;2023-12-29T02:19:46;53.50;;;37.28;;
80653;SDS011;70020;45.524;10.240;2023-12-29T02:24:49;62.40;;;39.25;;
80653;SDS011;70020;45.524;10.240;2023-12-29T02:32:49;56.58;;;38.10;;
80653;SDS011;70020;45.524;10.240;2023-12-29T02:35:21;53.13;;;36.60;;
80653;SDS011;70020;45.524;10.240;2023-12-29T02:37:50;53.28;;;37.25;;
80653;SDS011;70020;45.524;10.240;2023-12-29T02:40:16;57.05;;;37.65;;
80653;SDS011;70020;45.524;10.240;2023-12-29T02:42:45;54.92;;;36.85;;
80653;SDS011;70020;45.524;10.240;2023-12-29T02:45:12;52.97;;;38.03;;
80653;SDS011;70020;45.524;10.240;2023-12-29T02:47:38;53.10;;;38.30;;
80653;SDS011;70020;45.524;10.240;2023-12-29T02:50:04;53.78;;;36.42;;
80653;SDS011;70020;45.524;10.240;2023-12-29T02:52:30;49.67;;;37.42;;
80653;SDS011;70020;45.524;10.240;2023-12-29T02:54:56;55.28;;;37.30;;
80653;SDS011;70020;45.524;10.240;2023-12-29T02:57:22;51.83;;;37.70;;
80653;SDS011;70020;45.524;10.240;2023-12-29T02:59:49;55.85;;;37.72;;
80653;SDS011;70020;45.524;10.240;2023-12-29T03:02:14;50.58;;;37.40;;
80653;SDS011;70020;45.524;10.240;2023-12-29T03:04:41;59.13;;;36.97;;
80653;SDS011;70020;45.524;10.240;2023-12-29T03:07:07;51.00;;;34.65;;
80653;SDS011;70020;45.524;10.240;2023-12-29T03:09:33;51.65;;;34.80;;
80653;SDS011;70020;45.524;10.240;2023-12-29T03:12:00;50.40;;;35.58;;
80653;SDS011;70020;45.524;10.240;2023-12-29T03:14:25;47.53;;;34.67;;
80653;SDS011;70020;45.524;10.240;2023-12-29T03:16:51;51.33;;;34.83;;
80653;SDS011;70020;45.524;10.240;2023-12-29T03:19:18;49.50;;;35.08;;
80653;SDS011;70020;45.524;10.240;2023-12-29T03:21:43;49.65;;;34.63;;
80653;SDS011;70020;45.524;10.240;2023-12-29T03:24:09;50.10;;;34.27;;
80653;SDS011;70020;45.524;10.240;2023-12-29T03:26:36;48.30;;;33.47;;
80653;SDS011;70020;45.524;10.240;2023-12-29T03:29:01;52.97;;;35.70;;
80653;SDS011;70020;45.524;10.240;2023-12-29T03:31:27;50.37;;;34.60;;
80653;SDS011;70020;45.524;10.240;2023-12-29T03:33:53;46.63;;;33.35;;
80653;SDS011;70020;45.524;10.240;2023-12-29T03:36:19;50.42;;;34.17;;
80653;SDS011;70020;45.524;10.240;2023-12-29T03:38:45;47.47;;;33.50;;
80653;SDS011;70020;45.524;10.240;2023-12-29T03:41:11;47.40;;;32.95;;
80653;SDS011;70020;45.524;10.240;2023-12-29T03:43:36;51.27;;;36.20;;
80653;SDS011;70020;45.524;10.240;2023-12-29T03:46:03;52.08;;;35.17;;
80653;SDS011;70020;45.524;10.240;2023-12-29T03:48:29;56.90;;;37.83;;
80653;SDS011;70020;45.524;10.240;2023-12-29T03:50:58;46.47;;;34.95;;
80653;SDS011;70020;45.524;10.240;2023-12-29T03:53:24;58.42;;;37.25;;
80653;SDS011;70020;45.524;10.240;2023-12-29T03:55:50;54.77;;;36.43;;
80653;SDS011;70020;45.524;10.240;2023-12-29T03:58:17;53.13;;;36.05;;
80653;SDS011;70020;45.524;10.240;2023-12-29T04:00:43;50.90;;;35.67;;
80653;SDS011;70020;45.524;10.240;2023-12-29T04:05:36;54.65;;;35.45;;
80653;SDS011;70020;45.524;10.240;2023-12-29T04:10:28;52.88;;;35.72;;
80653;SDS011;70020;45.524;10.240;2023-12-29T04:12:54;53.00;;;35.70;;
80653;SDS011;70020;45.524;10.240;2023-12-29T04:15:20;49.63;;;36.37;;
80653;SDS011;70020;45.524;10.240;2023-12-29T04:17:46;50.80;;;36.42;;
80653;SDS011;70020;45.524;10.240;2023-12-29T04:20:12;51.65;;;35.20;;
80653;SDS011;70020;45.524;10.240;2023-12-29T04:22:38;47.90;;;35.30;;
80653;SDS011;70020;45.524;10.240;2023-12-29T04:25:04;52.03;;;35.27;;
80653;SDS011;70020;45.524;10.240;2023-12-29T04:27:31;55.10;;;35.97;;
80653;SDS011;70020;45.524;10.240;2023-12-29T04:32:23;54.35;;;35.05;;
80653;SDS011;70020;45.524;10.240;2023-12-29T04:34:49;50.60;;;35.33;;
80653;SDS011;70020;45.524;10.240;2023-12-29T04:37:15;57.90;;;36.28;;
80653;SDS011;70020;45.524;10.240;2023-12-29T04:39:41;53.13;;;34.60;;
80653;SDS011;70020;45.524;10.240;2023-12-29T04:42:07;47.03;;;34.85;;
80653;SDS011;70020;45.524;10.240;2023-12-29T04:44:33;48.53;;;35.07;;
80653;SDS011;70020;45.524;10.240;2023-12-29T04:46:59;54.43;;;35.80;;
80653;SDS011;70020;45.524;10.240;2023-12-29T04:49:29;51.47;;;35.05;;
80653;SDS011;70020;45.524;10.240;2023-12-29T04:51:54;55.83;;;36.00;;
80653;SDS011;70020;45.524;10.240;2023-12-29T04:54:20;52.67;;;34.35;;
80653;SDS011;70020;45.524;10.240;2023-12-29T04:59:13;47.45;;;34.60;;
80653;SDS011;70020;45.524;10.240;2023-12-29T05:01:38;50.47;;;34.20;;
80653;SDS011;70020;45.524;10.240;2023-12-29T05:04:05;49.10;;;34.63;;
80653;SDS011;70020;45.524;10.240;2023-12-29T05:06:31;48.45;;;34.72;;
80653;SDS011;70020;45.524;10.240;2023-12-29T05:08:57;53.67;;;35.80;;
80653;SDS011;70020;45.524;10.240;2023-12-29T05:11:23;52.80;;;34.63;;
80653;SDS011;70020;45.524;10.240;2023-12-29T05:16:16;48.95;;;33.75;;
80653;SDS011;70020;45.524;10.240;2023-12-29T05:18:41;49.87;;;33.93;;
80653;SDS011;70020;45.524;10.240;2023-12-29T05:21:14;49.33;;;34.40;;
80653;SDS011;70020;45.524;10.240;2023-12-29T05:23:44;51.40;;;34.45;;
80653;SDS011;70020;45.524;10.240;2023-12-29T05:26:16;49.17;;;34.00;;
80653;SDS011;70020;45.524;10.240;2023-12-29T05:28:42;51.30;;;35.58;;
80653;SDS011;70020;45.524;10.240;2023-12-29T05:31:08;52.03;;;36.17;;
80653;SDS011;70020;45.524;10.240;2023-12-29T05:33:34;49.35;;;36.35;;
80653;SDS011;70020;45.524;10.240;2023-12-29T05:36:07;52.88;;;36.10;;
80653;SDS011;70020;45.524;10.240;2023-12-29T05:38:35;48.78;;;34.67;;
80653;SDS011;70020;45.524;10.240;2023-12-29T05:41:04;49.70;;;34.70;;
80653;SDS011;70020;45.524;10.240;2023-12-29T05:43:33;49.30;;;34.97;;
80653;SDS011;70020;45.524;10.240;2023-12-29T05:45:59;51.22;;;34.40;;
80653;SDS011;70020;45.524;10.240;2023-12-29T05:48:26;49.88;;;35.08;;
80653;SDS011;70020;45.524;10.240;2023-12-29T05:50:52;49.50;;;34.85;;
80653;SDS011;70020;45.524;10.240;2023-12-29T05:53:18;47.88;;;33.55;;
80653;SDS011;70020;45.524;10.240;2023-12-29T05:55:43;46.77;;;34.43;;
80653;SDS011;70020;45.524;10.240;2023-12-29T05:58:10;48.30;;;34.95;;
80653;SDS011;70020;45.524;10.240;2023-12-29T06:00:36;52.25;;;35.80;;
80653;SDS011;70020;45.524;10.240;2023-12-29T06:03:02;47.50;;;33.65;;
80653;SDS011;70020;45.524;10.240;2023-12-29T06:05:29;49.10;;;34.83;;
80653;SDS011;70020;45.524;10.240;2023-12-29T06:07:54;47.83;;;33.30;;
80653;SDS011;70020;45.524;10.240;2023-12-29T06:10:20;54.05;;;35.33;;
80653;SDS011;70020;45.524;10.240;2023-12-29T06:12:46;50.63;;;34.93;;
80653;SDS011;70020;45.524;10.240;2023-12-29T06:15:13;47.70;;;33.28;;
80653;SDS011;70020;45.524;10.240;2023-12-29T06:17:39;48.90;;;33.65;;
80653;SDS011;70020;45.524;10.240;2023-12-29T06:20:06;47.00;;;34.53;;
80653;SDS011;70020;45.524;10.240;2023-12-29T06:22:34;45.90;;;33.15;;
80653;SDS011;70020;45.524;10.240;2023-12-29T06:25:05;51.63;;;33.72;;
80653;SDS011;70020;45.524;10.240;2023-12-29T06:27:35;51.10;;;33.30;;
80653;SDS011;70020;45.524;10.240;2023-12-29T06:30:04;48.50;;;32.08;;
80653;SDS011;70020;45.524;10.240;2023-12-29T06:32:30;43.40;;;31.52;;
80653;SDS011;70020;45.524;10.240;2023-12-29T06:34:56;46.30;;;31.40;;
80653;SDS011;70020;45.524;10.240;2023-12-29T06:37:22;42.60;;;31.53;;
80653;SDS011;70020;45.524;10.240;2023-12-29T06:39:48;44.90;;;31.92;;
80653;SDS011;70020;45.524;10.240;2023-12-29T06:42:14;48.22;;;32.38;;
80653;SDS011;70020;45.524;10.240;2023-12-29T06:44:40;47.13;;;32.77;;
80653;SDS011;70020;45.524;10.240;2023-12-29T06:47:06;45.85;;;30.60;;
80653;SDS011;70020;45.524;10.240;2023-12-29T06:49:34;43.40;;;31.95;;
80653;SDS011;70020;45.524;10.240;2023-12-29T06:52:00;45.10;;;31.60;;
80653;SDS011;70020;45.524;10.240;2023-12-29T06:54:25;44.10;;;29.95;;
80653;SDS011;70020;45.524;10.240;2023-12-29T06:56:51;43.07;;;30.60;;
80653;SDS011;70020;45.524;10.240;2023-12-29T06:59:17;42.00;;;30.92;;
80653;SDS011;70020;45.524;10.240;2023-12-29T07:01:44;43.55;;;30.80;;
80653;SDS011;70020;45.524;10.240;2023-12-29T07:04:10;41.60;;;30.80;;
80653;SDS011;70020;45.524;10.240;2023-12-29T07:06:37;45.63;;;30.92;;
80653;SDS011;70020;45.524;10.240;2023-12-29T07:09:03;42.97;;;30.20;;
80653;SDS011;70020;45.524;10.240;2023-12-29T07:11:29;45.58;;;31.25;;
80653;SDS011;70020;45.524;10.240;2023-12-29T07:13:55;43.50;;;30.85;;
80653;SDS011;70020;45.524;10.240;2023-12-29T07:16:21;41.45;;;29.55;;
80653;SDS011;70020;45.524;10.240;2023-12-29T07:18:47;47.60;;;30.03;;
80653;SDS011;70020;45.524;10.240;2023-12-29T07:21:13;44.80;;;30.27;;
80653;SDS011;70020;45.524;10.240;2023-12-29T07:23:40;48.10;;;30.25;;
80653;SDS011;70020;45.524;10.240;2023-12-29T07:28:32;42.70;;;29.23;;
80653;SDS011;70020;45.524;10.240;2023-12-29T07:30:58;42.47;;;29.58;;
80653;SDS011;70020;45.524;10.240;2023-12-29T07:35:50;43.05;;;28.38;;
80653;SDS011;70020;45.524;10.240;2023-12-29T07:38:16;41.63;;;28.50;;
80653;SDS011;70020;45.524;10.240;2023-12-29T07:40:45;45.58;;;28.55;;
80653;SDS011;70020;45.524;10.240;2023-12-29T07:43:12;46.97;;;30.75;;
80653;SDS011;70020;45.524;10.240;2023-12-29T07:45:38;39.23;;;28.77;;
80653;SDS011;70020;45.524;10.240;2023-12-29T07:48:03;43.40;;;29.70;;
80653;SDS011;70020;45.524;10.240;2023-12-29T07:50:31;40.67;;;29.08;;
80653;SDS011;70020;45.524;10.240;2023-12-29T07:52:57;43.50;;;29.63;;
80653;SDS011;70020;45.524;10.240;2023-12-29T07:55:22;38.80;;;28.17;;
80653;SDS011;70020;45.524;10.240;2023-12-29T07:57:48;40.87;;;28.50;;
80653;SDS011;70020;45.524;10.240;2023-12-29T08:00:14;41.43;;;28.47;;
80653;SDS011;70020;45.524;10.240;2023-12-29T08:02:40;42.17;;;27.30;;
80653;SDS011;70020;45.524;10.240;2023-12-29T08:05:06;40.45;;;27.65;;
80653;SDS011;70020;45.524;10.240;2023-12-29T08:07:35;38.55;;;27.05;;
80653;SDS011;70020;45.524;10.240;2023-12-29T08:10:02;37.33;;;25.17;;
80653;SDS011;70020;45.524;10.240;2023-12-29T08:12:32;38.92;;;24.35;;
80653;SDS011;70020;45.524;10.240;2023-12-29T08:14:58;29.20;;;22.60;;
80653;SDS011;70020;45.524;10.240;2023-12-29T08:17:25;33.30;;;24.02;;
80653;SDS011;70020;45.524;10.240;2023-12-29T08:19:53;31.70;;;21.17;;
80653;SDS011;70020;45.524;10.240;2023-12-29T08:22:19;33.05;;;22.73;;
80653;SDS011;70020;45.524;10.240;2023-12-29T08:24:46;30.90;;;21.70;;
80653;SDS011;70020;45.524;10.240;2023-12-29T08:27:12;30.33;;;21.30;;
80653;SDS011;70020;45.524;10.240;2023-12-29T08:29:38;32.33;;;21.42;;
80653;SDS011;70020;45.524;10.240;2023-12-29T08:32:04;33.80;;;22.75;;
80653;SDS011;70020;45.524;10.240;2023-12-29T08:34:31;28.92;;;20.73;;
80653;SDS011;70020;45.524;10.240;2023-12-29T08:36:57;30.85;;;20.58;;
80653;SDS011;70020;45.524;10.240;2023-12-29T08:39:23;32.00;;;21.53;;
80653;SDS011;70020;45.524;10.240;2023-12-29T08:41:49;27.27;;;20.42;;
80653;SDS011;70020;45.524;10.240;2023-12-29T08:44:15;33.70;;;21.05;;
80653;SDS011;70020;45.524;10.240;2023-12-29T08:46:41;33.50;;;20.83;;
80653;SDS011;70020;45.524;10.240;2023-12-29T08:49:07;31.23;;;21.80;;
80653;SDS011;70020;45.524;10.240;2023-12-29T08:51:32;36.13;;;21.80;;
80653;SDS011;70020;45.524;10.240;2023-12-29T08:53:58;32.78;;;21.70;;
80653;SDS011;70020;45.524;10.240;2023-12-29T08:56:24;31.75;;;21.95;;
80653;SDS011;70020;45.524;10.240;2023-12-29T08:58:50;30.60;;;21.60;;
80653;SDS011;70020;45.524;10.240;2023-12-29T09:01:16;31.23;;;22.98;;
80653;SDS011;70020;45.524;10.240;2023-12-29T09:03:41;30.93;;;21.77;;
80653;SDS011;70020;45.524;10.240;2023-12-29T09:06:07;31.67;;;22.70;;
80653;SDS011;70020;45.524;10.240;2023-12-29T09:08:36;33.70;;;21.98;;
80653;SDS011;70020;45.524;10.240;2023-12-29T09:11:02;36.63;;;23.80;;
80653;SDS011;70020;45.524;10.240;2023-12-29T09:13:28;34.88;;;24.92;;
80653;SDS011;70020;45.524;10.240;2023-12-29T09:15:56;34.40;;;25.00;;
80653;SDS011;70020;45.524;10.240;2023-12-29T09:18:22;37.75;;;24.00;;
80653;SDS011;70020;45.524;10.240;2023-12-29T09:20:49;32.25;;;21.85;;
80653;SDS011;70020;45.524;10.240;2023-12-29T09:23:15;33.72;;;22.50;;
80653;SDS011;70020;45.524;10.240;2023-12-29T09:25:41;33.85;;;23.77;;
80653;SDS011;70020;45.524;10.240;2023-12-29T09:28:06;31.13;;;22.30;;
80653;SDS011;70020;45.524;10.240;2023-12-29T09:30:33;34.38;;;24.10;;
80653;SDS011;70020;45.524;10.240;2023-12-29T09:32:58;36.47;;;24.52;;
80653;SDS011;70020;45.524;10.240;2023-12-29T09:35:24;34.75;;;25.10;;
80653;SDS011;70020;45.524;10.240;2023-12-29T09:37:50;33.50;;;23.73;;
80653;SDS011;70020;45.524;10.240;2023-12-29T09:40:16;34.42;;;24.02;;
80653;SDS011;70020;45.524;10.240;2023-12-29T09:42:44;33.67;;;23.17;;
80653;SDS011;70020;45.524;10.240;2023-12-29T09:45:12;36.95;;;24.63;;
80653;SDS011;70020;45.524;10.240;2023-12-29T09:47:39;35.20;;;24.58;;
80653;SDS011;70020;45.524;10.240;2023-12-29T09:50:15;32.10;;;24.58;;
80653;SDS011;70020;45.524;10.240;2023-12-29T09:52:42;41.60;;;25.67;;
80653;SDS011;70020;45.524;10.240;2023-12-29T09:55:08;39.88;;;24.45;;
80653;SDS011;70020;45.524;10.240;2023-12-29T09:57:36;35.22;;;24.08;;
80653;SDS011;70020;45.524;10.240;2023-12-29T10:00:03;36.03;;;24.05;;
80653;SDS011;70020;45.524;10.240;2023-12-29T10:02:29;31.92;;;23.38;;
80653;SDS011;70020;45.524;10.240;2023-12-29T10:07:25;38.97;;;23.67;;
80653;SDS011;70020;45.524;10.240;2023-12-29T10:09:55;38.60;;;25.13;;
80653;SDS011;70020;45.524;10.240;2023-12-29T10:12:23;33.15;;;23.55;;
80653;SDS011;70020;45.524;10.240;2023-12-29T10:23:37;33.97;;;22.55;;
80653;SDS011;70020;45.524;10.240;2023-12-29T10:26:05;31.55;;;22.25;;
80653;SDS011;70020;45.524;10.240;2023-12-29T10:28:32;31.45;;;22.02;;
80653;SDS011;70020;45.524;10.240;2023-12-29T10:30:58;34.80;;;21.77;;
80653;SDS011;70020;45.524;10.240;2023-12-29T10:33:24;29.85;;;22.08;;
80653;SDS011;70020;45.524;10.240;2023-12-29T10:35:56;32.47;;;22.67;;
80653;SDS011;70020;45.524;10.240;2023-12-29T10:38:26;29.08;;;20.02;;
80653;SDS011;70020;45.524;10.240;2023-12-29T10:40:53;33.10;;;20.60;;
80653;SDS011;70020;45.524;10.240;2023-12-29T10:43:22;27.05;;;20.15;;
80653;SDS011;70020;45.524;10.240;2023-12-29T10:45:49;31.25;;;20.05;;
80653;SDS011;70020;45.524;10.240;2023-12-29T10:48:21;28.80;;;20.42;;
80653;SDS011;70020;45.524;10.240;2023-12-29T10:50:49;27.55;;;20.23;;
80653;SDS011;70020;45.524;10.240;2023-12-29T10:53:18;32.40;;;20.83;;
80653;SDS011;70020;45.524;10.240;2023-12-29T10:55:44;37.23;;;20.97;;
80653;SDS011;70020;45.524;10.240;2023-12-29T10:58:09;28.27;;;20.97;;
80653;SDS011;70020;45.524;10.240;2023-12-29T11:00:38;29.90;;;20.63;;
80653;SDS011;70020;45.524;10.240;2023-12-29T11:03:04;30.27;;;20.27;;
80653;SDS011;70020;45.524;10.240;2023-12-29T11:05:31;34.00;;;21.67;;
80653;SDS011;70020;45.524;10.240;2023-12-29T11:07:58;29.60;;;20.63;;
80653;SDS011;70020;45.524;10.240;2023-12-29T11:10:24;33.80;;;20.87;;
80653;SDS011;70020;45.524;10.240;2023-12-29T11:12:52;31.40;;;20.17;;
80653;SDS011;70020;45.524;10.240;2023-12-29T11:15:19;32.92;;;20.23;;
80653;SDS011;70020;45.524;10.240;2023-12-29T11:17:46;30.15;;;19.38;;
80653;SDS011;70020;45.524;10.240;2023-12-29T11:20:15;30.95;;;19.77;;
80653;SDS011;70020;45.524;10.240;2023-12-29T11:25:07;29.50;;;19.15;;
80653;SDS011;70020;45.524;10.240;2023-12-29T11:30:01;30.90;;;19.95;;
80653;SDS011;70020;45.524;10.240;2023-12-29T11:35:13;29.67;;;20.20;;
80653;SDS011;70020;45.524;10.240;2023-12-29T11:37:52;32.78;;;19.98;;
80653;SDS011;70020;45.524;10.240;2023-12-29T11:40:44;27.73;;;20.60;;
80653;SDS011;70020;45.524;10.240;2023-12-29T11:43:17;30.52;;;21.42;;
80653;SDS011;70020;45.524;10.240;2023-12-29T11:45:43;29.70;;;21.05;;
80653;SDS011;70020;45.524;10.240;2023-12-29T11:48:10;33.17;;;21.05;;
80653;SDS011;70020;45.524;10.240;2023-12-29T11:53:06;34.40;;;20.42;;
80653;SDS011;70020;45.524;10.240;2023-12-29T11:55:37;34.95;;;20.60;;
80653;SDS011;70020;45.524;10.240;2023-12-29T11:58:04;31.42;;;20.83;;
80653;SDS011;70020;45.524;10.240;2023-12-29T12:00:48;28.13;;;19.67;;
80653;SDS011;70020;45.524;10.240;2023-12-29T12:03:22;31.60;;;20.45;;
80653;SDS011;70020;45.524;10.240;2023-12-29T12:05:51;34.22;;;20.20;;
80653;SDS011;70020;45.524;10.240;2023-12-29T12:11:41;31.23;;;21.02;;
80653;SDS011;70020;45.524;10.240;2023-12-29T12:13:54;29.90;;;20.83;;
80653;SDS011;70020;45.524;10.240;2023-12-29T12:19:05;38.00;;;20.27;;
80653;SDS011;70020;45.524;10.240;2023-12-29T12:21:32;31.70;;;21.20;;
80653;SDS011;70020;45.524;10.240;2023-12-29T12:23:58;32.08;;;20.85;;
80653;SDS011;70020;45.524;10.240;2023-12-29T12:26:25;30.75;;;20.33;;
80653;SDS011;70020;45.524;10.240;2023-12-29T12:28:52;32.05;;;20.02;;
80653;SDS011;70020;45.524;10.240;2023-12-29T12:31:19;27.73;;;19.80;;
80653;SDS011;70020;45.524;10.240;2023-12-29T12:33:53;26.83;;;20.90;;
80653;SDS011;70020;45.524;10.240;2023-12-29T12:36:20;35.17;;;20.65;;
80653;SDS011;70020;45.524;10.240;2023-12-29T12:38:56;32.78;;;20.58;;
80653;SDS011;70020;45.524;10.240;2023-12-29T12:41:26;32.85;;;21.75;;
80653;SDS011;70020;45.524;10.240;2023-12-29T12:46:43;28.58;;;20.48;;
80653;SDS011;70020;45.524;10.240;2023-12-29T12:49:13;30.40;;;20.33;;
80653;SDS011;70020;45.524;10.240;2023-12-29T12:51:40;25.38;;;20.27;;
80653;SDS011;70020;45.524;10.240;2023-12-29T12:54:06;24.75;;;19.45;;
80653;SDS011;70020;45.524;10.240;2023-12-29T12:56:32;29.33;;;21.27;;
80653;SDS011;70020;45.524;10.240;2023-12-29T12:59:00;29.30;;;20.02;;
80653;SDS011;70020;45.524;10.240;2023-12-29T13:01:29;30.40;;;20.40;;
80653;SDS011;70020;45.524;10.240;2023-12-29T13:04:03;28.90;;;20.92;;
80653;SDS011;70020;45.524;10.240;2023-12-29T13:06:32;31.05;;;20.80;;
80653;SDS011;70020;45.524;10.240;2023-12-29T13:09:04;33.70;;;21.27;;
80653;SDS011;70020;45.524;10.240;2023-12-29T13:11:42;30.85;;;21.30;;
80653;SDS011;70020;45.524;10.240;2023-12-29T13:14:08;33.25;;;21.23;;
80653;SDS011;70020;45.524;10.240;2023-12-29T13:16:37;29.38;;;21.25;;
80653;SDS011;70020;45.524;10.240;2023-12-29T13:19:18;27.35;;;20.00;;
80653;SDS011;70020;45.524;10.240;2023-12-29T13:21:49;31.73;;;21.52;;
80653;SDS011;70020;45.524;10.240;2023-12-29T13:24:18;31.98;;;21.30;;
80653;SDS011;70020;45.524;10.240;2023-12-29T13:26:45;29.95;;;20.33;;
80653;SDS011;70020;45.524;10.240;2023-12-29T13:29:17;31.83;;;21.10;;
80653;SDS011;70020;45.524;10.240;2023-12-29T13:31:45;32.45;;;20.58;;
80653;SDS011;70020;45.524;10.240;2023-12-29T13:34:27;28.25;;;20.38;;
80653;SDS011;70020;45.524;10.240;2023-12-29T13:42:26;33.28;;;20.58;;
80653;SDS011;70020;45.524;10.240;2023-12-29T13:44:56;31.63;;;21.02;;
80653;SDS011;70020;45.524;10.240;2023-12-29T13:47:24;30.77;;;20.80;;
80653;SDS011;70020;45.524;10.240;2023-12-29T13:49:50;32.72;;;21.13;;
80653;SDS011;70020;45.524;10.240;2023-12-29T13:52:16;34.53;;;21.05;;
80653;SDS011;70020;45.524;10.240;2023-12-29T13:54:44;31.20;;;20.25;;
80653;SDS011;70020;45.524;10.240;2023-12-29T13:57:09;29.90;;;20.57;;
80653;SDS011;70020;45.524;10.240;2023-12-29T13:59:35;34.70;;;20.63;;
80653;SDS011;70020;45.524;10.240;2023-12-29T14:08:00;27.58;;;19.08;;
80653;SDS011;70020;45.524;10.240;2023-12-29T14:10:30;29.80;;;20.88;;
80653;SDS011;70020;45.524;10.240;2023-12-29T14:13:06;36.25;;;20.35;;
80653;SDS011;70020;45.524;10.240;2023-12-29T14:15:36;28.05;;;20.60;;
80653;SDS011;70020;45.524;10.240;2023-12-29T14:18:09;29.35;;;20.05;;
80653;SDS011;70020;45.524;10.240;2023-12-29T14:20:52;28.27;;;21.10;;
80653;SDS011;70020;45.524;10.240;2023-12-29T14:23:18;32.03;;;20.90;;
80653;SDS011;70020;45.524;10.240;2023-12-29T14:25:44;35.35;;;21.27;;
80653;SDS011;70020;45.524;10.240;2023-12-29T14:28:18;31.02;;;20.58;;
80653;SDS011;70020;45.524;10.240;2023-12-29T14:30:45;31.20;;;20.90;;
80653;SDS011;70020;45.524;10.240;2023-12-29T14:33:11;30.20;;;21.73;;
80653;SDS011;70020;45.524;10.240;2023-12-29T14:35:37;31.73;;;20.33;;
80653;SDS011;70020;45.524;10.240;2023-12-29T14:38:03;30.98;;;23.02;;
80653;SDS011;70020;45.524;10.240;2023-12-29T14:40:30;32.65;;;21.25;;
80653;SDS011;70020;45.524;10.240;2023-12-29T14:42:59;31.70;;;22.13;;
80653;SDS011;70020;45.524;10.240;2023-12-29T14:45:26;32.47;;;22.63;;
80653;SDS011;70020;45.524;10.240;2023-12-29T14:47:54;36.10;;;20.63;;
80653;SDS011;70020;45.524;10.240;2023-12-29T14:50:40;34.50;;;21.80;;
80653;SDS011;70020;45.524;10.240;2023-12-29T14:53:25;30.77;;;21.05;;
80653;SDS011;70020;45.524;10.240;2023-12-29T14:55:54;31.55;;;21.27;;
80653;SDS011;70020;45.524;10.240;2023-12-29T14:58:20;32.10;;;22.13;;
80653;SDS011;70020;45.524;10.240;2023-12-29T15:00:46;31.75;;;21.50;;
80653;SDS011;70020;45.524;10.240;2023-12-29T15:03:12;33.37;;;21.47;;
80653;SDS011;70020;45.524;10.240;2023-12-29T15:05:40;30.67;;;21.58;;
80653;SDS011;70020;45.524;10.240;2023-12-29T15:08:06;33.80;;;20.40;;
80653;SDS011;70020;45.524;10.240;2023-12-29T15:10:33;31.95;;;21.38;;
80653;SDS011;70020;45.524;10.240;2023-12-29T15:13:02;29.90;;;20.92;;
80653;SDS011;70020;45.524;10.240;2023-12-29T15:15:28;29.73;;;21.63;;
80653;SDS011;70020;45.524;10.240;2023-12-29T15:17:53;28.70;;;21.40;;
80653;SDS011;70020;45.524;10.240;2023-12-29T15:20:19;38.72;;;24.60;;